Blue Horizon — WCX5096 — position and weather

sailwx.info

Track history (hours):
 
Tides and Currents Weather Stations Pressure Air Temp Water Temp Dewpoint Dewpoint Depression Visibility Wind Speed Wind Dir Waves Ship Positions

Blue Horizon

Owner: STRUNK, DANIEL R, REDONDO BEACH, CA. More information available from US FCC via Universal Licensing System and Coast Guard Vessel Documentation Center.

Last reported at 2017-Dec-02 08:17 UTC. Time now 2018-Jul-19 23:11 UTC.
Position N 33°26' W 118°11'.
Warning: this ship's position is months out of date.

Type: Passenger vessel. MMSI: 367422040.

Date/timePositionNaut miles runAvg speedWind from/ knotsBaromVisibWave heightAir tempDewpointWater temp
2017-Dec-02 08:17N 33°26' W 118°11'3 9.6
2017-Dec-02 08:00N 33°29' W 118°11'5 9.6
2017-Dec-02 07:30N 33°34' W 118°10'5 9.7
2017-Dec-02 07:00N 33°39' W 118°09'2 4.7
2017-Dec-02 06:30N 33°41' W 118°09'3 5.1
2017-Dec-02 05:59N 33°44' W 118°08'1 2.6
2017-Dec-02 05:30N 33°44' W 118°10'  
2017-Nov-26 01:50N 33°46' W 118°12'1 1.7
2017-Nov-26 01:25N 33°45' W 118°11'0 0.5
2017-Nov-26 00:58N 33°46' W 118°11'  
Track history (hours):
 
Tides and Currents Weather Stations Pressure Air Temp Water Temp Dewpoint Dewpoint Depression Visibility Wind Speed Wind Dir Waves Ship Positions

Blue Horizon

Owner: STRUNK, DANIEL R, REDONDO BEACH, CA. More information available from US FCC via Universal Licensing System and Coast Guard Vessel Documentation Center.

Last reported at 2017-Dec-02 08:17 UTC. Time now 2018-Jul-19 23:11 UTC.
Position N 33°26' W 118°11'.
Warning: this ship's position is months out of date.

Type: Passenger vessel. MMSI: 367422040.

Date/timePositionNaut miles runAvg speedWind from/ knotsBaromVisibWave heightAir tempDewpointWater temp
2017-Dec-02 08:17N 33°26' W 118°11'3 9.6
2017-Dec-02 08:00N 33°29' W 118°11'5 9.6
2017-Dec-02 07:30N 33°34' W 118°10'5 9.7
2017-Dec-02 07:00N 33°39' W 118°09'2 4.7
2017-Dec-02 06:30N 33°41' W 118°09'3 5.1
2017-Dec-02 05:59N 33°44' W 118°08'1 2.6
2017-Dec-02 05:30N 33°44' W 118°10'  
2017-Nov-26 01:50N 33°46' W 118°12'1 1.7
2017-Nov-26 01:25N 33°45' W 118°11'0 0.5
2017-Nov-26 00:58N 33°46' W 118°11'  

Dump ship's entire track history